Terminal Aerodrome Forecast
Issued by NWS

Home | Current Version | Previous Version | Text Only | Print | Product List | Glossary On
Versions: 1 2 3 4 5 6 7 8 9 10 11 12 13 14 15 16 17
000
FTUS45 KSLC 240527
TAFENV
TAF
KENV 240527Z 2406/2506 33011KT P6SM SCT080 SCT150
     FM241500 23007KT P6SM SCT040 BKN080
     FM242200 33014G24KT P6SM VCSH SCT020 BKN040=

USA.gov is the U.S. government's official web portal to all federal, state and local government web resources and services.